Mary Ann Moran — WDF4572 — position and weather

sailwx.info

Track history (hours):
 
Tides and Currents Weather Stations Pressure Air Temp Water Temp Dewpoint Dewpoint Depression Visibility Wind Speed Wind Dir Waves Ship Positions

Mary Ann Moran

Owner: MORAN TOWING CORPORATION, NEW CANAAN, CT. More information available from US FCC via Universal Licensing System and Coast Guard Vessel Documentation Center.

Last reported at 2015-Apr-14 10:28 UTC. Time now 2015-Apr-26 08:23 UTC.
Position N 26°33' W 083°04'.
Warning: this ship's position is 11 days out of date.

Length 170 m; draft 9 m.

Type: Tow > 200 m length. MMSI: 367453420.

Date/timePositionNaut miles runAvg speedWind from/ knotsBaromVisibWave heightAir tempDewpointWater temp
2015-Apr-14 10:28N 26°33' W 083°04'68 8.5
2015-Apr-14 02:27N 27°37' W 082°40'8 9.3
2015-Apr-14 01:33N 27°43' W 082°33'8 7.9
2015-Apr-14 00:33N 27°49' W 082°27'7 7.2
2015-Apr-13 23:33N 27°56' W 082°27'1 0.8
2015-Apr-13 22:33N 27°57' W 082°27'0 0.0
2015-Apr-13 21:29N 27°57' W 082°27'0 0.0
2015-Apr-13 20:32N 27°57' W 082°27'0 0.0
2015-Apr-13 19:29N 27°57' W 082°27'0 0.0
2015-Apr-13 18:32N 27°57' W 082°27'0 0.0
2015-Apr-13 17:32N 27°57' W 082°27'0 0.0
2015-Apr-13 16:32N 27°57' W 082°27'0 0.0
2015-Apr-13 15:32N 27°57' W 082°27'0 0.0
2015-Apr-13 14:32N 27°57' W 082°27'0 0.0
2015-Apr-13 13:32N 27°57' W 082°27'0 0.0
2015-Apr-13 12:32N 27°57' W 082°27'0 0.0
2015-Apr-13 11:32N 27°57' W 082°27'0 0.0
2015-Apr-13 10:32N 27°57' W 082°27'0 0.0
2015-Apr-13 09:26N 27°57' W 082°27'0 0.0
2015-Apr-13 08:32N 27°57' W 082°27'0 0.0
2015-Apr-13 07:32N 27°57' W 082°27'0 0.0
2015-Apr-13 06:32N 27°57' W 082°27'0 0.0
2015-Apr-13 05:32N 27°57' W 082°27'0 0.0
2015-Apr-13 04:32N 27°57' W 082°27'0 0.1
2015-Apr-13 03:32N 27°57' W 082°27'0 0.0
2015-Apr-13 02:32N 27°57' W 082°27'0 0.0
2015-Apr-13 01:32N 27°57' W 082°27'0 0.0
2015-Apr-13 00:32N 27°57' W 082°27'0 0.0
2015-Apr-12 23:32N 27°57' W 082°27'0 0.0
2015-Apr-12 22:32N 27°57' W 082°27'0 0.0
2015-Apr-12 21:32N 27°57' W 082°27'0 0.0
2015-Apr-12 20:32N 27°57' W 082°27'0 0.0
2015-Apr-12 19:32N 27°57' W 082°27'0 0.0
2015-Apr-12 18:32N 27°57' W 082°27'0 0.4
2015-Apr-12 17:31N 27°56' W 082°27'1 0.5
2015-Apr-12 16:31N 27°57' W 082°27'1 1.2
2015-Apr-12 15:33N 27°56' W 082°27'7 7.4
2015-Apr-12 14:33N 27°48' W 082°27'  
Track history (hours):
 
Tides and Currents Weather Stations Pressure Air Temp Water Temp Dewpoint Dewpoint Depression Visibility Wind Speed Wind Dir Waves Ship Positions

Mary Ann Moran

Owner: MORAN TOWING CORPORATION, NEW CANAAN, CT. More information available from US FCC via Universal Licensing System and Coast Guard Vessel Documentation Center.

Last reported at 2015-Apr-14 10:28 UTC. Time now 2015-Apr-26 08:23 UTC.
Position N 26°33' W 083°04'.
Warning: this ship's position is 11 days out of date.

Length 170 m; draft 9 m.

Type: Tow > 200 m length. MMSI: 367453420.

Date/timePositionNaut miles runAvg speedWind from/ knotsBaromVisibWave heightAir tempDewpointWater temp
2015-Apr-14 10:28N 26°33' W 083°04'68 8.5
2015-Apr-14 02:27N 27°37' W 082°40'8 9.3
2015-Apr-14 01:33N 27°43' W 082°33'8 7.9
2015-Apr-14 00:33N 27°49' W 082°27'7 7.2
2015-Apr-13 23:33N 27°56' W 082°27'1 0.8
2015-Apr-13 22:33N 27°57' W 082°27'0 0.0
2015-Apr-13 21:29N 27°57' W 082°27'0 0.0
2015-Apr-13 20:32N 27°57' W 082°27'0 0.0
2015-Apr-13 19:29N 27°57' W 082°27'0 0.0
2015-Apr-13 18:32N 27°57' W 082°27'0 0.0
2015-Apr-13 17:32N 27°57' W 082°27'0 0.0
2015-Apr-13 16:32N 27°57' W 082°27'0 0.0
2015-Apr-13 15:32N 27°57' W 082°27'0 0.0
2015-Apr-13 14:32N 27°57' W 082°27'0 0.0
2015-Apr-13 13:32N 27°57' W 082°27'0 0.0
2015-Apr-13 12:32N 27°57' W 082°27'0 0.0
2015-Apr-13 11:32N 27°57' W 082°27'0 0.0
2015-Apr-13 10:32N 27°57' W 082°27'0 0.0
2015-Apr-13 09:26N 27°57' W 082°27'0 0.0
2015-Apr-13 08:32N 27°57' W 082°27'0 0.0
2015-Apr-13 07:32N 27°57' W 082°27'0 0.0
2015-Apr-13 06:32N 27°57' W 082°27'0 0.0
2015-Apr-13 05:32N 27°57' W 082°27'0 0.0
2015-Apr-13 04:32N 27°57' W 082°27'0 0.1
2015-Apr-13 03:32N 27°57' W 082°27'0 0.0
2015-Apr-13 02:32N 27°57' W 082°27'0 0.0
2015-Apr-13 01:32N 27°57' W 082°27'0 0.0
2015-Apr-13 00:32N 27°57' W 082°27'0 0.0
2015-Apr-12 23:32N 27°57' W 082°27'0 0.0
2015-Apr-12 22:32N 27°57' W 082°27'0 0.0
2015-Apr-12 21:32N 27°57' W 082°27'0 0.0
2015-Apr-12 20:32N 27°57' W 082°27'0 0.0
2015-Apr-12 19:32N 27°57' W 082°27'0 0.0
2015-Apr-12 18:32N 27°57' W 082°27'0 0.4
2015-Apr-12 17:31N 27°56' W 082°27'1 0.5
2015-Apr-12 16:31N 27°57' W 082°27'1 1.2
2015-Apr-12 15:33N 27°56' W 082°27'7 7.4
2015-Apr-12 14:33N 27°48' W 082°27'  

Dump ship's entire track history